Time;durP1;ratioP1;P1;durP2;ratioP2;P2;SDS_P1;SDS_P2;PMS_P1;PMS_P2;Temp;Humidity;BMP_temperature;BMP_pressure;BME280_temperature;BME280_humidity;BME280_pressure;Samples;Min_cycle;Max_cycle;Signal;HPM_P1;HPM_P2
2023/08/21 00:00:57;;;;;;;5.57;5.17;;;;;;;27.08;48.09;99533.75;5011726;28;20255;-64
2023/08/21 00:03:26;;;;;;;4.93;4.50;;;;;;;27.07;41.00;99537.59;5011628;28;20194;-64
2023/08/21 00:05:52;;;;;;;7.60;5.30;;;;;;;27.09;41.85;99538.91;5028144;28;20274;-64
2023/08/21 00:08:19;;;;;;;5.63;5.13;;;;;;;27.10;42.34;99542.41;5014845;28;20546;-64
2023/08/21 00:10:46;;;;;;;6.43;5.83;;;;;;;27.13;45.16;99542.63;5011312;28;20553;-64
2023/08/21 00:13:13;;;;;;;6.07;5.17;;;;;;;27.14;43.80;99544.25;5011629;28;20724;-63
2023/08/21 00:15:40;;;;;;;5.03;4.73;;;;;;;27.15;43.65;99545.84;5011645;28;20197;-65
2023/08/21 00:18:07;;;;;;;5.73;5.23;;;;;;;27.13;44.44;99547.28;5011958;28;20197;-64
2023/08/21 00:20:35;;;;;;;6.27;5.67;;;;;;;27.18;44.93;99552.63;5030711;28;20200;-64
2023/08/21 00:23:02;;;;;;;7.07;6.33;;;;;;;27.21;46.79;99552.06;5031450;28;20189;-65
2023/08/21 00:25:28;;;;;;;9.90;5.97;;;;;;;27.05;47.68;99546.06;5031433;28;20255;-64
2023/08/21 00:27:55;;;;;;;6.37;5.87;;;;;;;26.96;48.10;99547.06;5030012;28;20741;-64
2023/08/21 00:30:22;;;;;;;9.27;6.47;;;;;;;26.98;48.09;99550.28;5029519;28;20244;-64
2023/08/21 00:32:48;;;;;;;6.70;6.20;;;;;;;27.02;48.05;99545.84;5030828;28;20221;-65
2023/08/21 00:35:15;;;;;;;5.97;5.47;;;;;;;26.96;48.74;99547.06;5031475;28;20201;-65
2023/08/21 00:37:43;;;;;;;6.20;5.80;;;;;;;27.00;47.80;99556.25;5031050;28;20580;-65
2023/08/21 00:40:11;;;;;;;6.70;6.20;;;;;;;27.05;48.35;99550.69;5031432;28;20201;-65
2023/08/21 00:42:37;;;;;;;7.10;6.40;;;;;;;27.10;48.43;99553.31;5031267;28;20198;-64
2023/08/21 00:45:08;;;;;;;7.63;7.03;;;;;;;27.07;49.34;99543.81;5018005;28;20190;-64
2023/08/21 00:47:34;;;;;;;6.33;5.93;;;;;;;26.91;50.07;99547.16;5011276;28;20650;-64
2023/08/21 00:50:01;;;;;;;7.37;6.70;;;;;;;26.85;50.21;99545.63;5011489;28;20256;-64
2023/08/21 00:52:29;;;;;;;6.60;6.20;;;;;;;26.77;49.93;99555.31;5011386;28;20198;-64
2023/08/21 00:54:57;;;;;;;7.00;6.40;;;;;;;26.77;50.01;99549.03;5011570;28;20194;-64
2023/08/21 00:57:24;;;;;;;6.70;6.20;;;;;;;26.85;49.74;99545.63;5011130;28;20690;-64
2023/08/21 00:59:51;;;;;;;6.57;6.17;;;;;;;26.90;49.80;99548.28;5011521;28;20198;-64
2023/08/21 01:02:18;;;;;;;6.43;6.03;;;;;;;26.71;50.58;99544.81;5026301;28;20200;-64
2023/08/21 01:04:45;;;;;;;6.47;6.13;;;;;;;26.52;51.57;99541.28;5030870;28;20692;-65
2023/08/21 01:07:12;;;;;;;8.33;6.70;;;;;;;26.46;51.49;99547.94;5023437;28;20287;-64
2023/08/21 01:09:46;;;;;;;7.43;5.90;;;;;;;26.36;51.98;99537.19;5010903;28;20693;-63
2023/08/21 01:12:23;;;;;;;6.70;6.30;;;;;;;26.29;51.57;99537.56;5011309;28;20186;-64
2023/08/21 01:15:02;;;;;;;7.77;5.83;;;;;;;26.32;51.40;99547.06;5011106;28;20186;-63
2023/08/21 01:17:31;;;;;;;6.90;6.27;;;;;;;26.08;52.19;99546.34;5017141;28;20193;-64
2023/08/21 01:19:58;;;;;;;8.60;6.10;;;;;;;25.97;52.88;99547.63;5031007;28;20201;-64
2023/08/21 01:22:27;;;;;;;6.23;5.63;;;;;;;25.98;52.27;99554.69;5031801;28;20489;-64
2023/08/21 01:24:55;;;;;;;7.50;6.63;;;;;;;25.89;52.70;99553.69;5034607;28;20197;-65
2023/08/21 01:27:22;;;;;;;6.13;5.53;;;;;;;25.90;52.89;99552.59;5034374;28;20221;-64
2023/08/21 01:29:49;;;;;;;6.33;5.90;;;;;;;25.76;53.48;99554.44;5034268;28;20589;-65
2023/08/21 01:32:24;;;;;;;6.17;5.67;;;;;;;25.65;53.40;99548.31;5034381;28;20561;-65
2023/08/21 01:34:52;;;;;;;6.10;5.70;;;;;;;25.52;54.31;99554.47;5022702;28;20598;-64
2023/08/21 01:37:20;;;;;;;7.13;6.10;;;;;;;25.42;54.74;99551.06;5014429;28;20275;-64
2023/08/21 01:39:47;;;;;;;8.83;6.00;;;;;;;25.32;55.14;99551.19;5014465;28;20202;-63
2023/08/21 01:42:15;;;;;;;6.47;5.97;;;;;;;25.25;55.56;99547.97;5014339;28;20194;-64
2023/08/21 01:44:42;;;;;;;6.73;6.10;;;;;;;25.17;55.29;99552.16;5014309;28;20217;-64
2023/08/21 01:47:08;;;;;;;5.87;5.57;;;;;;;25.08;56.13;99554.69;5013886;28;20287;-63
2023/08/21 01:49:35;;;;;;;6.33;5.83;;;;;;;24.99;56.57;99548.25;5014366;28;20198;-63
2023/08/21 01:52:02;;;;;;;6.07;5.57;;;;;;;24.93;56.51;99546.72;5028204;28;20267;-64
2023/08/21 01:54:28;;;;;;;7.10;6.33;;;;;;;24.93;56.48;99552.16;5033711;28;20254;-64
2023/08/21 01:56:55;;;;;;;6.37;5.77;;;;;;;24.97;56.81;99555.09;5033529;28;20247;-64
2023/08/21 01:59:25;;;;;;;6.17;5.77;;;;;;;24.90;56.84;99547.28;5033498;28;20193;-64
2023/08/21 02:01:51;;;;;;;7.10;6.37;;;;;;;24.85;57.27;99543.78;5033586;28;20661;-64
2023/08/21 02:04:18;;;;;;;6.77;6.37;;;;;;;24.78;57.27;99549.56;5033771;28;20194;-64
2023/08/21 02:06:45;;;;;;;6.40;5.90;;;;;;;24.78;57.63;99543.31;5021134;28;20213;-64
2023/08/21 02:09:12;;;;;;;6.90;6.40;;;;;;;24.78;57.40;99548.75;5033315;28;20193;-64
2023/08/21 02:11:38;;;;;;;6.83;6.20;;;;;;;24.66;58.18;99551.03;5033649;28;20193;-64
2023/08/21 02:14:05;;;;;;;8.93;6.17;;;;;;;24.60;58.02;99558.44;5032258;28;20691;-62
2023/08/21 02:16:33;;;;;;;7.23;6.63;;;;;;;24.55;58.17;99550.28;5033521;28;20201;-62
2023/08/21 02:19:00;;;;;;;7.17;6.77;;;;;;;24.44;58.43;99543.34;5033504;28;20200;-63
2023/08/21 02:21:26;;;;;;;7.00;6.40;;;;;;;24.48;58.45;99547.13;5031759;28;20200;-62
2023/08/21 02:23:53;;;;;;;6.90;6.40;;;;;;;24.37;58.83;99532.00;5013649;28;20771;-63
2023/08/21 02:26:20;;;;;;;10.00;6.40;;;;;;;24.41;58.64;99538.47;5013649;28;20302;-64
2023/08/21 02:28:47;;;;;;;8.27;6.43;;;;;;;24.47;58.76;99534.59;5013173;28;20612;-63
2023/08/21 02:31:13;;;;;;;6.87;6.37;;;;;;;24.47;58.73;99541.97;5013390;28;20233;-63
2023/08/21 02:33:41;;;;;;;7.57;6.63;;;;;;;24.38;59.04;99522.75;5012548;28;20662;-67
2023/08/21 02:36:08;;;;;;;6.47;6.07;;;;;;;24.43;59.35;99536.28;5013526;28;20281;-63
2023/08/21 02:38:35;;;;;;;7.03;6.33;;;;;;;24.64;58.54;99531.50;5018796;28;20239;-63
2023/08/21 02:41:01;;;;;;;6.73;6.23;;;;;;;24.83;57.92;99535.94;5033369;28;20270;-63
2023/08/21 02:43:29;;;;;;;7.03;6.50;;;;;;;24.99;57.49;99537.38;5031941;28;20193;-64
2023/08/21 02:45:56;;;;;;;6.53;5.93;;;;;;;25.23;56.93;99539.31;5033039;28;20279;-64
2023/08/21 02:48:23;;;;;;;7.23;5.97;;;;;;;25.42;55.95;99542.91;5032974;28;20193;-65
2023/08/21 02:50:51;;;;;;;9.43;6.30;;;;;;;25.60;55.49;99542.13;5033022;28;20236;-64
2023/08/21 02:53:18;;;;;;;6.00;5.53;;;;;;;25.71;55.18;99533.53;5032535;28;20573;-64
2023/08/21 02:55:45;;;;;;;6.50;5.87;;;;;;;25.82;54.49;99536.91;5019938;28;20267;-65
2023/08/21 02:58:11;;;;;;;6.60;5.97;;;;;;;25.87;54.53;99534.13;5013091;28;20198;-65
2023/08/21 03:00:38;;;;;;;7.20;6.53;;;;;;;25.96;54.14;99530.47;5013243;28;20190;-64
2023/08/21 03:03:05;;;;;;;7.77;6.50;;;;;;;26.04;53.97;99539.91;5012514;28;20252;-64
2023/08/21 03:05:31;;;;;;;7.17;5.53;;;;;;;26.13;53.64;99544.38;5012800;28;20264;-64
2023/08/21 03:08:00;;;;;;;6.87;6.37;;;;;;;26.19;53.28;99543.19;5026641;28;20278;-64
2023/08/21 03:10:28;;;;;;;8.53;6.13;;;;;;;26.25;53.09;99535.75;5032598;28;20243;-64
2023/08/21 03:12:55;;;;;;;7.40;6.80;;;;;;;26.33;52.87;99543.25;5012849;28;20194;-64
2023/08/21 03:15:22;;;;;;;6.53;5.97;;;;;;;26.38;52.67;99535.78;5012501;28;20198;-65
2023/08/21 03:17:49;;;;;;;6.50;5.93;;;;;;;26.42;52.26;99539.53;5012569;28;20585;-65
2023/08/21 03:20:17;;;;;;;7.43;6.50;;;;;;;26.47;52.27;99544.09;5022592;28;20251;-63
2023/08/21 03:22:44;;;;;;;6.90;6.17;;;;;;;26.49;52.20;99541.88;5031687;28;20198;-64
2023/08/21 03:25:14;;;;;;;9.70;6.20;;;;;;;26.55;52.03;99546.13;5032303;28;20239;-64
2023/08/21 03:27:44;;;;;;;6.67;6.00;;;;;;;26.60;51.74;99546.91;5030088;28;20716;-65
2023/08/21 03:30:14;;;;;;;6.53;5.87;;;;;;;26.63;51.50;99549.03;5030286;28;20637;-66
2023/08/21 03:32:41;;;;;;;7.10;5.93;;;;;;;26.65;51.71;99551.44;5032534;28;20676;-66
2023/08/21 03:35:08;;;;;;;6.60;6.10;;;;;;;26.64;51.47;99549.81;5013908;28;20198;-65
2023/08/21 03:37:35;;;;;;;6.23;5.77;;;;;;;26.71;51.23;99552.97;5012452;28;20198;-65
2023/08/21 03:40:03;;;;;;;9.70;6.37;;;;;;;26.72;51.18;99546.41;5012217;28;20194;-65
2023/08/21 03:42:31;;;;;;;5.83;5.23;;;;;;;26.69;50.90;99550.56;5020839;28;20189;-65
2023/08/21 03:44:58;;;;;;;7.23;6.57;;;;;;;26.58;51.28;99551.81;5031695;28;20570;-65
2023/08/21 03:47:24;;;;;;;8.77;6.10;;;;;;;26.55;51.33;99546.13;5031007;28;20282;-65
2023/08/21 03:49:51;;;;;;;6.60;6.03;;;;;;;26.43;51.58;99526.72;5030206;28;20193;-65
2023/08/21 03:52:18;;;;;;;12.53;6.50;;;;;;;26.61;50.90;99555.88;5012130;28;20248;-64
2023/08/21 03:54:44;;;;;;;6.47;6.03;;;;;;;26.65;51.25;99557.72;5012106;28;20194;-65
2023/08/21 03:57:11;;;;;;;6.80;6.30;;;;;;;26.65;51.09;99545.97;5020347;28;20271;-64
2023/08/21 03:59:39;;;;;;;7.10;5.90;;;;;;;26.75;50.57;99556.72;5031668;28;20251;-64
2023/08/21 04:02:06;;;;;;;6.83;6.07;;;;;;;26.75;50.74;99559.44;5031408;28;20197;-66
2023/08/21 04:04:32;;;;;;;8.10;6.43;;;;;;;26.69;50.72;99553.28;5031674;28;20271;-64
2023/08/21 04:06:59;;;;;;;11.67;6.50;;;;;;;26.58;51.03;99557.28;5025484;28;20217;-64
2023/08/21 04:09:26;;;;;;;6.97;6.37;;;;;;;26.78;50.72;99561.59;5011650;28;20666;-65
2023/08/21 04:11:52;;;;;;;10.33;6.47;;;;;;;26.92;50.36;99554.22;5019252;28;20280;-64
2023/08/21 04:14:19;;;;;;;16.73;6.77;;;;;;;27.07;49.64;99560.19;5031300;28;20188;-64
2023/08/21 04:16:47;;;;;;;14.17;7.17;;;;;;;27.28;49.29;99555.97;5031386;28;20262;-65
2023/08/21 04:19:14;;;;;;;8.93;6.13;;;;;;;27.59;47.58;99561.63;5030454;28;20201;-66
2023/08/21 04:21:40;;;;;;;10.93;6.40;;;;;;;27.70;46.99;99563.03;5011969;28;20244;-65
2023/08/21 04:24:08;;;;;;;6.70;6.07;;;;;;;27.71;46.97;99564.66;5011567;28;20252;-64
2023/08/21 04:26:34;;;;;;;8.00;6.10;;;;;;;27.93;47.04;99565.53;5020893;28;20229;-64
2023/08/21 04:29:01;;;;;;;7.17;6.47;;;;;;;28.39;45.89;99573.47;5031126;28;20746;-65
2023/08/21 04:31:28;;;;;;;12.93;6.27;;;;;;;28.53;44.55;99564.13;5031389;28;20624;-65
2023/08/21 04:33:56;;;;;;;14.47;6.00;;;;;;;28.72;44.00;99570.22;5029660;28;20629;-66
2023/08/21 04:36:22;;;;;;;9.27;6.33;;;;;;;28.76;43.86;99570.38;5011830;28;20389;-65
2023/08/21 04:38:49;;;;;;;10.70;6.33;;;;;;;28.97;43.74;99571.47;5011582;28;20190;-65
2023/08/21 04:41:16;;;;;;;20.70;6.60;;;;;;;29.13;42.99;99575.44;5020972;28;20243;-64
2023/08/21 04:43:42;;;;;;;8.43;5.83;;;;;;;29.39;41.82;99573.59;5021115;28;20739;-65
2023/08/21 04:46:09;;;;;;;14.07;6.43;;;;;;;29.68;41.42;99573.88;5021200;28;20732;-65
2023/08/21 04:48:36;;;;;;;16.30;6.20;;;;;;;29.80;41.00;99574.06;5022408;28;20194;-64
2023/08/21 04:51:04;;;;;;;9.23;5.90;;;;;;;29.92;40.95;99582.47;5019649;28;20190;-64
2023/08/21 04:53:31;;;;;;;14.83;6.03;;;;;;;30.35;40.62;99586.06;5020940;28;20699;-65
2023/08/21 04:55:59;;;;;;;9.23;6.30;;;;;;;30.76;39.33;99591.84;5021121;28;20209;-65
2023/08/21 04:58:26;;;;;;;10.67;6.63;;;;;;;31.23;38.52;99595.47;5020107;28;20674;-66
2023/08/21 05:00:52;;;;;;;10.47;5.60;;;;;;;31.83;37.05;99588.56;5019604;28;20685;-65
2023/08/21 05:03:19;;;;;;;9.33;6.23;;;;;;;32.18;36.36;99589.91;5024606;28;20740;-65
2023/08/21 05:05:53;;;;;;;8.10;6.00;;;;;;;32.38;36.10;99588.34;5024637;28;20186;-66
2023/08/21 05:08:21;;;;;;;6.97;5.83;;;;;;;32.29;35.68;99585.63;5023255;28;20293;-65
2023/08/21 05:10:48;;;;;;;7.23;5.50;;;;;;;32.57;35.76;99592.19;5024444;28;20251;-66
2023/08/21 05:13:16;;;;;;;17.73;6.23;;;;;;;32.94;35.17;99591.19;5033098;28;20197;-67
2023/08/21 05:15:43;;;;;;;10.83;6.27;;;;;;;33.33;34.16;99591.72;5034837;28;20556;-66
2023/08/21 05:18:10;;;;;;;10.37;6.10;;;;;;;33.53;34.04;99599.09;5015970;28;20670;-67
2023/08/21 05:20:37;;;;;;;7.40;6.43;;;;;;;33.50;34.34;99591.50;5015065;28;20204;-65
2023/08/21 05:23:04;;;;;;;14.02;6.60;;;;;;;33.85;33.70;99592.66;5014882;28;20249;-65
2023/08/21 05:25:32;;;;;;;8.48;5.88;;;;;;;34.09;33.38;99598.16;5014499;28;20249;-65
2023/08/21 05:27:59;;;;;;;10.10;6.03;;;;;;;34.20;32.98;99602.00;5030328;28;20652;-65
2023/08/21 05:30:26;;;;;;;15.57;6.10;;;;;;;34.21;32.96;99600.88;5034340;28;20251;-65
2023/08/21 05:32:53;;;;;;;22.02;6.70;;;;;;;34.66;32.44;99609.72;5024155;28;20222;-64
2023/08/21 05:35:19;;;;;;;6.30;5.72;;;;;;;34.80;32.22;99607.34;5022162;28;20186;-67
2023/08/21 05:37:46;;;;;;;5.85;5.45;;;;;;;35.02;31.89;99604.03;5022345;28;20628;-65
2023/08/21 05:40:13;;;;;;;8.65;5.55;;;;;;;35.52;31.04;99604.94;5022969;28;20197;-66
2023/08/21 05:42:41;;;;;;;9.77;5.65;;;;;;;35.54;30.57;99593.53;5031121;28;20239;-64
2023/08/21 05:45:08;;;;;;;6.32;5.03;;;;;;;35.71;30.74;99587.63;5026263;28;20202;-63
2023/08/21 05:47:35;;;;;;;10.18;5.88;;;;;;;35.89;30.44;99597.94;5015800;28;20214;-62
2023/08/21 05:50:03;;;;;;;9.25;5.28;;;;;;;36.22;30.29;99603.06;5019102;28;20255;-65
2023/08/21 05:52:30;;;;;;;11.45;5.55;;;;;;;36.79;29.33;99601.09;5022946;28;20277;-64
2023/08/21 05:54:56;;;;;;;5.78;5.35;;;;;;;37.38;28.07;99606.16;5024124;28;20189;-63
2023/08/21 05:57:23;;;;;;;9.77;5.05;;;;;;;37.16;28.24;99604.22;5028411;28;20197;-62
2023/08/21 05:59:51;;;;;;;10.20;5.97;;;;;;;36.77;28.35;99592.38;5025896;28;20279;-61
2023/08/21 06:02:18;;;;;;;7.57;5.05;;;;;;;36.63;28.44;99608.66;5011449;28;20193;-63
2023/08/21 06:04:44;;;;;;;6.93;4.65;;;;;;;36.37;28.82;99611.31;5010396;28;20198;-69
2023/08/21 06:07:11;;;;;;;9.48;4.97;;;;;;;36.24;29.25;99609.03;5019150;28;20222;-67
2023/08/21 06:09:38;;;;;;;18.38;6.10;;;;;;;36.38;29.37;99612.91;5009750;28;20264;-64
2023/08/21 06:12:05;;;;;;;11.95;5.40;;;;;;;36.44;28.99;99607.88;5018720;28;20255;-66
2023/08/21 06:14:32;;;;;;;10.27;5.07;;;;;;;36.18;29.01;99607.69;5031418;28;20197;-66
2023/08/21 06:17:01;;;;;;;36.72;6.78;;;;;;;36.05;28.91;99609.00;5031187;28;20205;-63
2023/08/21 06:19:29;;;;;;;15.35;5.38;;;;;;;36.26;29.08;99612.25;5026325;28;20674;-67
2023/08/21 06:21:55;;;;;;;7.72;5.13;;;;;;;36.15;28.75;99620.28;5010561;28;20693;-68
2023/08/21 06:24:22;;;;;;;10.68;5.15;;;;;;;36.20;29.06;99616.44;5018269;28;20738;-64
2023/08/21 06:26:49;;;;;;;17.10;5.45;;;;;;;36.04;29.20;99610.94;5029520;28;20201;-66
2023/08/21 06:29:16;;;;;;;6.30;4.85;;;;;;;36.00;28.57;99617.56;5025708;28;20193;-64
2023/08/21 06:31:43;;;;;;;5.47;4.13;;;;;;;36.20;28.55;99621.97;5020242;28;20270;-64
2023/08/21 06:34:11;;;;;;;8.55;5.13;;;;;;;36.21;28.44;99612.50;5015091;28;20284;-64
2023/08/21 06:36:38;;;;;;;6.40;4.68;;;;;;;36.53;28.66;99622.28;5020266;28;20626;-64
2023/08/21 06:39:06;;;;;;;4.68;4.20;;;;;;;36.66;27.90;99618.25;5030325;28;20198;-63
2023/08/21 06:41:32;;;;;;;10.68;4.68;;;;;;;36.95;27.71;99623.19;5019734;28;20189;-64
2023/08/21 06:43:59;;;;;;;6.15;4.28;;;;;;;36.84;27.60;99619.41;5024587;28;20642;-65
2023/08/21 06:46:26;;;;;;;4.63;4.15;;;;;;;36.94;26.89;99624.34;5024729;28;20248;-65
2023/08/21 06:48:53;;;;;;;8.68;4.20;;;;;;;36.64;26.67;99628.88;5051358;28;20664;-61
2023/08/21 06:51:21;;;;;;;4.35;4.05;;;;;;;36.52;27.15;99623.47;5050756;28;20196;-62
2023/08/21 06:53:48;;;;;;;8.90;4.15;;;;;;;36.28;27.54;99618.22;5040049;28;20262;-63
2023/08/21 06:56:14;;;;;;;7.30;4.28;;;;;;;36.12;27.22;99615.47;5011497;28;20252;-63
2023/08/21 06:58:41;;;;;;;7.35;4.50;;;;;;;36.20;27.68;99616.44;5011825;28;20194;-63
2023/08/21 07:01:08;;;;;;;10.40;4.45;;;;;;;36.13;28.23;99621.81;5019796;28;20205;-64
2023/08/21 07:03:34;;;;;;;9.35;4.38;;;;;;;36.37;27.71;99621.56;5022442;28;20292;-64
2023/08/21 07:06:02;;;;;;;13.60;4.82;;;;;;;36.42;28.29;99618.53;5019228;28;20194;-64
2023/08/21 07:08:30;;;;;;;10.35;4.03;;;;;;;36.39;27.91;99614.53;5011544;28;20249;-63
2023/08/21 07:10:57;;;;;;;6.60;4.75;;;;;;;36.36;28.10;99619.97;5011255;28;20623;-65
2023/08/21 07:13:24;;;;;;;5.72;4.22;;;;;;;36.28;27.88;99618.22;5013667;28;20193;-64
2023/08/21 07:15:54;;;;;;;5.35;4.80;;;;;;;36.20;28.00;99616.44;5023571;28;20239;-64
2023/08/21 07:18:21;;;;;;;6.38;4.57;;;;;;;36.30;28.36;99610.38;5031270;28;20186;-64
2023/08/21 07:20:48;;;;;;;5.03;4.57;;;;;;;36.52;28.03;99615.97;5025097;28;20201;-70
2023/08/21 07:23:14;;;;;;;9.15;5.18;;;;;;;36.88;26.91;99618.31;5018558;28;20193;-65
2023/08/21 07:25:43;;;;;;;16.23;5.20;;;;;;;36.86;27.61;99611.50;5019287;28;20259;-66
2023/08/21 07:28:10;;;;;;;6.65;4.82;;;;;;;36.98;27.38;99606.63;5021823;28;20282;-64
2023/08/21 07:30:38;;;;;;;5.47;4.43;;;;;;;37.16;27.36;99612.53;5020850;28;20189;-63
2023/08/21 07:33:05;;;;;;;6.47;4.47;;;;;;;37.29;26.29;99605.63;5021616;28;20213;-65
2023/08/21 07:35:32;;;;;;;63.33;9.70;;;;;;;37.40;26.69;99609.38;5017424;28;20654;-67
2023/08/21 07:37:58;;;;;;;10.07;4.68;;;;;;;37.57;26.35;99608.88;5018437;28;20339;-64
2023/08/21 07:40:25;;;;;;;15.05;4.47;;;;;;;37.49;26.57;99612.69;5020978;28;20272;-64
2023/08/21 07:42:53;;;;;;;9.32;4.53;;;;;;;37.24;26.94;99619.78;5018332;28;20186;-64
2023/08/21 07:45:20;;;;;;;9.98;4.75;;;;;;;37.49;27.23;99612.69;5021388;28;20747;-65
2023/08/21 07:47:47;;;;;;;11.63;4.70;;;;;;;37.32;25.79;99610.44;5020230;28;20222;-66
2023/08/21 07:50:16;;;;;;;12.55;4.43;;;;;;;37.60;25.92;99607.34;5022699;28;20198;-64
2023/08/21 07:52:43;;;;;;;9.90;4.45;;;;;;;37.97;25.43;99600.78;5023867;28;20201;-64
2023/08/21 07:55:10;;;;;;;6.60;4.00;;;;;;;37.90;25.71;99600.69;5024147;28;20210;-66
2023/08/21 07:57:36;;;;;;;4.90;4.40;;;;;;;38.20;25.96;99603.50;5021211;28;20642;-64
2023/08/21 08:00:08;;;;;;;9.27;4.07;;;;;;;38.43;25.10;99596.69;5019955;28;20189;-64
2023/08/21 08:02:35;;;;;;;18.58;4.82;;;;;;;38.46;24.80;99601.44;5016781;28;20205;-64
2023/08/21 08:05:01;;;;;;;9.00;3.47;;;;;;;38.27;24.33;99596.06;5019092;28;20198;-65
2023/08/21 08:07:28;;;;;;;6.80;3.88;;;;;;;38.52;24.33;99594.44;5019282;28;20275;-62
2023/08/21 08:09:55;;;;;;;12.38;4.00;;;;;;;38.59;24.50;99594.50;5020835;28;20414;-65
2023/08/21 08:12:22;;;;;;;20.83;4.45;;;;;;;38.62;24.85;99595.72;5019216;28;20194;-65
2023/08/21 08:14:48;;;;;;;8.00;4.80;;;;;;;39.07;24.12;99596.22;5018359;28;20186;-65
2023/08/21 08:17:16;;;;;;;11.85;7.00;;;;;;;39.60;24.14;99591.94;5011346;28;20435;-62
2023/08/21 08:19:43;;;;;;;10.15;4.55;;;;;;;39.95;22.52;99589.44;5010970;28;20255;-67
2023/08/21 08:22:10;;;;;;;8.57;4.28;;;;;;;40.16;22.26;99588.75;5013206;28;20445;-64
2023/08/21 08:24:36;;;;;;;4.72;3.42;;;;;;;40.05;22.42;99588.69;5026933;28;20263;-63
2023/08/21 08:27:03;;;;;;;6.25;3.72;;;;;;;39.62;22.63;99580.44;5013730;28;20189;-63
2023/08/21 08:29:30;;;;;;;4.28;3.92;;;;;;;39.67;22.63;99577.28;5017721;28;20656;-63
2023/08/21 08:31:57;;;;;;;7.82;4.53;;;;;;;39.72;23.11;99579.72;5026791;28;20256;-63
2023/08/21 08:34:25;;;;;;;8.13;4.13;;;;;;;39.98;22.70;99574.75;5021195;28;20189;-63
2023/08/21 08:36:52;;;;;;;6.65;3.97;;;;;;;40.18;22.65;99576.06;5020584;28;20989;-65
2023/08/21 08:39:19;;;;;;;7.53;3.90;;;;;;;40.27;22.31;99573.72;5033256;28;20619;-64
2023/08/21 08:41:52;;;;;;;8.85;3.92;;;;;;;40.29;22.44;99571.34;5031748;28;20673;-65
2023/08/21 08:44:20;;;;;;;18.38;5.20;;;;;;;40.42;21.81;99572.56;5025625;28;20281;-63
2023/08/21 08:46:48;;;;;;;4.95;3.67;;;;;;;40.24;22.31;99560.59;5024107;28;20689;-63
2023/08/21 08:49:15;;;;;;;6.45;3.95;;;;;;;40.52;22.90;99557.91;5024383;28;20312;-65
2023/08/21 08:51:46;;;;;;;10.30;4.05;;;;;;;40.57;22.46;99560.28;5023274;28;20251;-64
2023/08/21 08:54:14;;;;;;;6.25;3.88;;;;;;;40.22;22.64;99556.59;5023007;28;20201;-63
2023/08/21 08:56:40;;;;;;;5.50;3.88;;;;;;;40.45;22.02;99563.44;5022547;28;20623;-64
2023/08/21 08:59:09;;;;;;;9.32;3.65;;;;;;;40.41;21.87;99557.06;5024058;28;20212;-63
2023/08/21 09:01:36;;;;;;;7.72;4.30;;;;;;;40.44;21.46;99564.63;5023753;28;20297;-66
2023/08/21 09:04:03;;;;;;;4.93;4.40;;;;;;;40.62;21.76;99565.50;5022537;28;20252;-64
2023/08/21 09:06:31;;;;;;;9.32;4.15;;;;;;;40.87;21.27;99552.41;5022459;28;20221;-65
2023/08/21 09:08:59;;;;;;;6.80;4.10;;;;;;;41.06;21.40;99553.28;5025843;28;20217;-66
2023/08/21 09:11:26;;;;;;;3.67;3.40;;;;;;;41.12;21.66;99546.91;5025728;28;20263;-65
2023/08/21 09:13:53;;;;;;;4.43;3.63;;;;;;;41.25;20.77;99542.53;5023855;28;20201;-67
2023/08/21 09:16:21;;;;;;;3.97;3.60;;;;;;;41.16;21.03;99549.69;5023502;28;20654;-65
2023/08/21 09:18:48;;;;;;;5.03;3.95;;;;;;;41.11;21.15;99539.75;5024153;28;20225;-66
2023/08/21 09:21:17;;;;;;;10.45;4.15;;;;;;;41.11;21.33;99536.16;5024399;28;20752;-63
2023/08/21 09:23:45;;;;;;;5.88;4.28;;;;;;;41.19;21.09;99535.75;5023951;28;20198;-63
2023/08/21 09:26:20;;;;;;;4.05;3.53;;;;;;;41.34;20.72;99525.41;5023230;28;20205;-63
2023/08/21 09:28:47;;;;;;;15.43;4.53;;;;;;;41.39;20.64;99516.63;5022662;28;20400;-65
2023/08/21 09:31:14;;;;;;;7.07;3.47;;;;;;;41.43;20.84;99528.59;5022999;28;20284;-67
2023/08/21 09:33:41;;;;;;;3.70;3.42;;;;;;;41.34;20.88;99508.66;5021775;28;20204;-64
2023/08/21 09:36:10;;;;;;;5.35;4.00;;;;;;;41.30;20.61;99513.44;5020843;28;20197;-65
2023/08/21 09:38:39;;;;;;;8.32;4.03;;;;;;;41.10;21.08;99509.47;5021307;28;20234;-66
2023/08/21 09:41:07;;;;;;;4.13;3.78;;;;;;;40.98;20.50;99505.03;5021415;28;20252;-67
2023/08/21 09:43:42;;;;;;;5.15;3.38;;;;;;;40.84;20.97;99508.63;5021837;28;20197;-64
2023/08/21 09:46:09;;;;;;;9.10;3.95;;;;;;;41.02;20.64;99514.22;5021807;28;20264;-65
2023/08/21 09:48:37;;;;;;;4.88;4.00;;;;;;;41.14;20.60;99501.91;5031519;28;20224;-64
2023/08/21 09:51:05;;;;;;;3.67;3.38;;;;;;;41.35;20.19;99499.09;5029801;28;20267;-65
2023/08/21 09:53:32;;;;;;;4.15;3.40;;;;;;;41.47;20.35;99504.28;5030377;28;20637;-65
2023/08/21 09:56:03;;;;;;;3.97;3.65;;;;;;;41.37;20.74;99499.47;5028203;28;20231;-66
2023/08/21 09:58:29;;;;;;;5.85;3.55;;;;;;;40.97;20.46;99504.25;5021402;28;20221;-66
2023/08/21 10:00:59;;;;;;;6.35;3.58;;;;;;;41.01;20.74;99495.91;5027314;28;20628;-65
2023/08/21 10:03:27;;;;;;;8.63;4.07;;;;;;;41.06;20.22;99483.56;5028454;28;20197;-65
2023/08/21 10:05:56;;;;;;;3.88;3.00;;;;;;;40.69;20.88;99479.16;5030540;28;20263;-64
2023/08/21 10:08:26;;;;;;;6.13;3.75;;;;;;;40.31;21.17;99479.84;5027257;28;20599;-65
2023/08/21 10:10:53;;;;;;;4.63;3.60;;;;;;;39.90;21.40;99475.72;5031002;28;20219;-65
2023/08/21 10:13:19;;;;;;;7.40;3.90;;;;;;;39.67;21.57;99477.13;5029545;28;20297;-66
2023/08/21 10:15:47;;;;;;;5.20;3.63;;;;;;;39.95;21.36;99475.31;5029924;28;20278;-67
2023/08/21 10:18:23;;;;;;;5.63;3.70;;;;;;;40.19;20.82;99466.28;5028500;28;20201;-68
2023/08/21 10:20:50;;;;;;;3.88;3.58;;;;;;;40.36;20.76;99459.97;5030604;28;20224;-65
2023/08/21 10:23:28;;;;;;;5.38;3.80;;;;;;;40.56;20.81;99452.84;5030066;28;20657;-66
2023/08/21 10:25:56;;;;;;;3.85;3.65;;;;;;;40.78;19.87;99457.25;5023761;28;20228;-65
2023/08/21 10:28:23;;;;;;;6.75;3.60;;;;;;;40.70;20.20;99455.66;5026994;28;20300;-66
2023/08/21 10:30:49;;;;;;;5.78;3.45;;;;;;;40.24;20.43;99451.97;5028307;28;20259;-66
2023/08/21 10:33:16;;;;;;;3.70;3.40;;;;;;;40.14;20.59;99463.88;5027931;28;20193;-67
2023/08/21 10:35:44;;;;;;;3.92;3.55;;;;;;;40.09;20.50;99460.66;5028066;28;20201;-66
2023/08/21 10:38:12;;;;;;;4.88;3.70;;;;;;;39.69;20.85;99458.88;5027101;28;20739;-66
2023/08/21 10:40:40;;;;;;;5.07;3.38;;;;;;;39.18;20.94;99452.59;5028811;28;20194;-67
2023/08/21 10:43:40;;;;;;;6.07;3.40;;;;;;;38.94;21.24;99458.75;5029432;28;20692;-65
2023/08/21 10:46:08;;;;;;;5.10;3.90;;;;;;;38.59;21.67;99435.41;5028045;28;20201;-64
2023/08/21 10:48:35;;;;;;;6.13;3.45;;;;;;;38.46;22.18;99445.16;5029852;28;20224;-65
2023/08/21 10:51:05;;;;;;;4.15;3.85;;;;;;;38.38;22.23;99441.53;5028788;28;20193;-65
2023/08/21 10:53:33;;;;;;;12.02;4.05;;;;;;;38.42;22.34;99439.59;5028815;28;20244;-66
2023/08/21 10:56:02;;;;;;;6.07;3.50;;;;;;;38.45;22.39;99438.81;5028041;28;20193;-64
2023/08/21 10:58:29;;;;;;;4.03;3.42;;;;;;;38.55;21.78;99437.34;5011729;28;20686;-65
2023/08/21 11:00:59;;;;;;;4.05;3.72;;;;;;;38.91;21.65;99440.06;5005699;28;20280;-65
2023/08/21 11:03:26;;;;;;;7.47;3.70;;;;;;;39.21;21.67;99437.09;5029993;28;20296;-66
2023/08/21 11:06:08;;;;;;;7.03;5.72;;;;;;;39.25;20.98;99424.84;5030379;28;20357;-65
2023/08/21 11:08:35;;;;;;;11.73;8.38;;;;;;;38.82;21.54;99447.13;5028951;28;20220;-65
2023/08/21 11:11:03;;;;;;;7.13;5.78;;;;;;;38.85;21.55;99446.31;5031323;28;20247;-64
2023/08/21 11:13:30;;;;;;;12.38;3.97;;;;;;;38.74;21.92;99439.91;5030175;28;20198;-65
2023/08/21 11:16:00;;;;;;;4.82;3.85;;;;;;;38.83;21.86;99441.19;5029675;28;20271;-63
2023/08/21 11:18:34;;;;;;;5.45;3.42;;;;;;;39.05;21.43;99434.63;5011766;28;20769;-64
2023/08/21 11:21:08;;;;;;;4.63;3.08;;;;;;;39.34;21.59;99430.06;5010958;28;20201;-64
2023/08/21 11:23:36;;;;;;;5.25;3.63;;;;;;;39.60;20.88;99424.25;5011974;28;20205;-65
2023/08/21 11:26:03;;;;;;;7.40;3.45;;;;;;;39.82;21.14;99426.78;5011922;28;20198;-66
2023/08/21 11:28:31;;;;;;;5.28;3.45;;;;;;;39.78;20.79;99428.75;5011052;28;20194;-65
2023/08/21 11:30:59;;;;;;;6.40;3.67;;;;;;;39.60;20.94;99440.94;5010178;28;20233;-66
2023/08/21 11:33:27;;;;;;;5.80;3.40;;;;;;;39.51;20.49;99444.06;5011197;28;20240;-66